09:11
Airports
History
Links
Donate
Help keep this website running!
PayPal
Bitcoin
This page is community maintained. The information is intended for PC simulator navigation or reference.
Always use approved charts for navigation.
NC36
Bentons Airfield
Bentons Airfield (NC36)
Pikeville, North Carolina, United States (27863)
4
Lat/Lng:35° 30' 10.58" N / 78° 1' 48.96" W
35.502938 / -78.030266
Elevation:145'ft / 44mMSL
ID / ICAO:NC36
Runways:1
Longest:04-22
Grass 547m / 1,795ft
Nearby Weather08:56 GMT 2018-01-20
Nearby weather at KGSB, Seymour Johnson Afb located 12.0 nautical miles from NC36
Altimeter: 30.14
Visibility: 10.0 statute miles
Wind: 3 knots (from 210°)
Temp: 0°c / 32°f
Humidity: %

METAR: KGSB 200856Z AUTO 21003KT 10SM CLR 00/M05 A3014 RMK AO2 SLP210 T10021050 58001 $

(Powered by phpweather)
Nearby VORs <50NM
Nearby NDBs
Runway 04 / 22
Dimensions:547.2 x 19.8m 1795' x 65'ft
Surface:Grass
Runway 04 [A]Runway 22 [B]
Heading:033°TH 213°TH
Lat:
Lng:
35° 30' 3.12"N
78° 1' 54.9"W
35° 30' 18.03"N
78° 1' 43.01"W
User Notes and Comments
35° 30' 10.58" N / 78° 1' 48.96" W
Distance To
Airport ID:
Nearby Airports
(U) Wayne Executive Jetport 4.7 NM
KGWW SE 128°
(R) Kenly 7.5 NM
7NC3 NNW 329°
(R) Hinton Field 8.1 NM
NC72 WSW 244°
(R) Seymour Johnson Afb 12.0 NM
KGSB ( WX ) SSE 160°
4 Selma 13.3 NM
5W7 W 279°
(R) Scottbrook Farm 13.4 NM
2NC4 SSW 211°
(R) Cox-grantham Airfield 17.0 NM
6NC0 SSW 209°
VFR Chart
Flight Planning at SkyVector.com